Wall Lake, South Dakota
Current Conditions -  °F | °C
As of 4:56 PM on Monday 24 Nov 2014 (Local Time) from KFSD Reporting Station
Scattered Clouds Scattered Clouds  
Wind Chill: 10°   Ceiling: Unl
Heat Index: 24°   Visibility: 10mi
Dew Point: 14°   Wind: 20mph
Humidity: 65%   Direction: 330°NNW
Pressure: 29.88"   Gusts: 31mph
Location:  43.6522°N, 96.9799°W
Report Text: KFSD 242256Z 33017G27KT 10SM SCT029 M04/M10 A2988 RMK AO2 PK WND 33033/2226 SLP140 T10441100
Loading
Personal Weather Stations






























Interactive Weather Map New forecast layout! Learn more

10-Day Weather Forecast

Advertisements
Track Severe Weather on mobile